Time;durP1;ratioP1;P1;durP2;ratioP2;P2;SDS_P1;SDS_P2;PMS_P1;PMS_P2;Temp;Humidity;BMP_temperature;BMP_pressure;BME280_temperature;BME280_humidity;BME280_pressure;Samples;Min_cycle;Max_cycle;Signal;HPM_P1;HPM_P2
2022/05/08 00:02:27;;;;;;;22.97;3.77;;;;;;;38.29;6.46;100381.75;4957123;29;20051;-60
2022/05/08 00:04:54;;;;;;;10.30;2.28;;;;;;;38.55;6.53;100383.13;4966357;28;20070;-60
2022/05/08 00:07:22;;;;;;;13.68;3.22;;;;;;;38.68;6.75;100375.34;4976143;28;20113;-60
2022/05/08 00:09:49;;;;;;;13.00;2.80;;;;;;;38.86;6.16;100374.63;4958697;28;20381;-60
2022/05/08 00:12:17;;;;;;;10.07;2.75;;;;;;;38.81;6.28;100382.97;4976084;28;20042;-58
2022/05/08 00:14:45;;;;;;;7.00;2.30;;;;;;;38.93;6.16;100373.53;4976145;28;20042;-59
2022/05/08 00:17:13;;;;;;;10.80;2.80;;;;;;;39.28;6.41;100377.75;4975904;28;20031;-59
2022/05/08 00:19:41;;;;;;;13.13;2.40;;;;;;;38.61;6.18;100377.66;4975856;28;20089;-60
2022/05/08 00:22:08;;;;;;;10.50;2.20;;;;;;;38.13;6.42;100379.09;4976034;28;20058;-61
2022/05/08 00:24:35;;;;;;;7.80;2.38;;;;;;;37.77;6.97;100363.38;4958735;28;20035;-61
2022/05/08 00:27:02;;;;;;;9.23;2.13;;;;;;;38.26;6.86;100372.13;4958619;28;20501;-60
2022/05/08 00:29:28;;;;;;;6.53;2.40;;;;;;;37.98;7.05;100362.59;4958378;28;20043;-58
2022/05/08 00:31:55;;;;;;;15.07;2.45;;;;;;;37.67;6.97;100370.19;4975754;28;20105;-58
2022/05/08 00:34:23;;;;;;;10.35;2.20;;;;;;;37.58;7.07;100372.97;4970195;28;20078;-60
2022/05/08 00:36:49;;;;;;;19.50;2.65;;;;;;;37.92;7.28;100369.31;4939285;29;20041;-59
2022/05/08 00:39:20;;;;;;;11.38;2.28;;;;;;;37.43;7.28;100379.13;4956228;29;20541;-60
2022/05/08 00:41:47;;;;;;;9.18;2.25;;;;;;;37.17;7.97;100378.38;4956143;29;20086;-60
2022/05/08 00:44:14;;;;;;;10.68;2.50;;;;;;;37.14;7.74;100392.66;4956156;29;20094;-60
2022/05/08 00:46:41;;;;;;;9.75;2.28;;;;;;;36.96;7.71;100390.41;4956002;29;20398;-59
2022/05/08 00:49:08;;;;;;;9.68;2.10;;;;;;;37.29;7.11;100393.78;4956122;29;20024;-59
2022/05/08 00:51:36;;;;;;;11.32;2.92;;;;;;;37.09;7.46;100379.06;4956194;29;20098;-58
2022/05/08 00:54:04;;;;;;;11.20;2.50;;;;;;;36.98;7.44;100375.78;4955866;29;20447;-60
2022/05/08 00:56:31;;;;;;;15.02;2.67;;;;;;;36.62;7.11;100371.22;4955867;29;20031;-61
2022/05/08 00:58:58;;;;;;;15.65;3.10;;;;;;;36.60;7.16;100376.53;4955918;29;20101;-59
2022/05/08 01:01:25;;;;;;;10.55;2.70;;;;;;;36.75;7.15;100374.06;4952943;29;20136;-59
2022/05/08 01:03:51;;;;;;;11.63;2.45;;;;;;;36.18;7.30;100381.44;4956818;28;20035;-59
2022/05/08 01:06:19;;;;;;;9.38;1.98;;;;;;;36.31;6.95;100383.09;4974706;28;20035;-61
2022/05/08 01:08:49;;;;;;;14.00;2.38;;;;;;;35.94;7.59;100392.25;4975088;28;20030;-60
2022/05/08 01:11:17;;;;;;;14.23;2.42;;;;;;;35.63;7.72;100397.50;4974784;28;20065;-60
2022/05/08 01:13:45;;;;;;;9.77;2.35;;;;;;;35.85;7.68;100397.75;4975181;28;20034;-60
2022/05/08 01:16:14;;;;;;;11.40;2.90;;;;;;;35.72;7.60;100406.13;4957606;28;20392;-59
2022/05/08 01:18:42;;;;;;;15.10;2.40;;;;;;;35.53;7.27;100416.31;4974648;28;20027;-60
2022/05/08 01:21:12;;;;;;;13.15;2.78;;;;;;;35.41;7.08;100394.44;4974940;28;20396;-61
2022/05/08 01:23:40;;;;;;;14.63;3.00;;;;;;;35.58;7.20;100412.19;4974773;28;20117;-59
2022/05/08 01:26:07;;;;;;;8.48;2.40;;;;;;;35.32;7.15;100411.19;4974865;28;20034;-60
2022/05/08 01:28:34;;;;;;;9.52;2.40;;;;;;;34.99;7.66;100416.81;4974577;28;20038;-59
2022/05/08 01:31:01;;;;;;;11.32;2.70;;;;;;;34.85;7.72;100417.19;4974792;28;20027;-61
2022/05/08 01:33:28;;;;;;;15.85;2.70;;;;;;;34.51;7.55;100423.16;4974705;28;20122;-59
2022/05/08 01:35:56;;;;;;;23.73;2.80;;;;;;;34.24;6.94;100434.56;4939794;29;20023;-59
2022/05/08 01:38:24;;;;;;;16.27;3.03;;;;;;;34.39;7.26;100418.97;4955179;29;20363;-60
2022/05/08 01:40:55;;;;;;;17.08;2.85;;;;;;;34.07;6.83;100439.31;4955394;29;20043;-61
2022/05/08 01:43:22;;;;;;;16.40;2.70;;;;;;;33.75;7.34;100425.00;4955259;29;20035;-59
2022/05/08 01:45:48;;;;;;;28.42;3.17;;;;;;;33.65;7.30;100436.06;4955161;29;20031;-59
2022/05/08 01:48:26;;;;;;;31.10;3.88;;;;;;;33.34;7.53;100426.13;4955010;28;20043;-59
2022/05/08 01:50:55;;;;;;;25.80;3.60;;;;;;;33.05;7.52;100422.97;4954906;29;20098;-61
2022/05/08 01:53:25;;;;;;;29.10;4.72;;;;;;;32.99;8.00;100433.88;4955466;28;20456;-61
2022/05/08 01:55:56;;;;;;;16.70;2.58;;;;;;;32.81;7.33;100436.16;4954933;29;20031;-60
2022/05/08 01:58:26;;;;;;;25.77;4.65;;;;;;;32.62;7.38;100436.81;4955262;29;20474;-60
2022/05/08 02:00:55;;;;;;;26.10;4.05;;;;;;;32.40;7.54;100447.53;4954684;28;20130;-59
2022/05/08 02:03:24;;;;;;;39.08;4.43;;;;;;;32.21;7.93;100448.13;4954944;29;20070;-59
2022/05/08 02:05:52;;;;;;;29.48;4.00;;;;;;;32.05;8.22;100440.28;4954892;29;20086;-60
2022/05/08 02:08:19;;;;;;;38.72;4.07;;;;;;;31.83;8.91;100445.34;4955027;28;20069;-60
2022/05/08 02:10:53;;;;;;;27.98;3.50;;;;;;;31.63;9.53;100458.34;4955031;29;20087;-60
2022/05/08 02:13:20;;;;;;;33.33;3.63;;;;;;;31.44;9.97;100429.59;4954921;28;20048;-59
2022/05/08 02:15:47;;;;;;;26.38;3.50;;;;;;;31.33;9.97;100445.75;4954053;28;20039;-60
2022/05/08 02:18:14;;;;;;;36.63;3.67;;;;;;;31.23;9.89;100441.00;4954773;28;20082;-59
2022/05/08 02:20:41;;;;;;;47.83;3.95;;;;;;;31.12;10.28;100454.28;4958767;29;20035;-59
2022/05/08 02:23:09;;;;;;;57.00;4.65;;;;;;;30.94;10.18;100458.00;4958829;29;20131;-58
2022/05/08 02:25:36;;;;;;;49.17;4.65;;;;;;;30.73;10.50;100463.75;4958765;28;20078;-59
2022/05/08 02:28:04;;;;;;;39.47;3.88;;;;;;;30.66;10.51;100444.94;4958747;28;20086;-61
2022/05/08 02:30:31;;;;;;;37.05;3.90;;;;;;;30.59;11.02;100452.56;4958734;29;20059;-60
2022/05/08 02:32:58;;;;;;;31.80;4.05;;;;;;;30.41;11.54;100443.44;4958519;29;20067;-59
2022/05/08 02:35:25;;;;;;;28.30;3.40;;;;;;;30.24;12.07;100426.25;4958568;28;20204;-59
2022/05/08 02:37:54;;;;;;;22.23;2.80;;;;;;;30.13;12.10;100425.47;4958307;29;20031;-59
2022/05/08 02:40:24;;;;;;;16.50;2.72;;;;;;;30.00;12.47;100427.13;4958714;28;20042;-58
2022/05/08 02:42:52;;;;;;;20.10;3.85;;;;;;;29.85;12.82;100431.16;4958357;29;20494;-58
2022/05/08 02:45:19;;;;;;;13.70;2.70;;;;;;;29.88;12.45;100439.53;4958389;29;20031;-59
2022/05/08 02:47:47;;;;;;;20.65;3.25;;;;;;;29.73;11.84;100441.56;4958168;28;20042;-59
2022/05/08 02:50:14;;;;;;;20.65;2.50;;;;;;;29.59;12.05;100441.56;4958263;29;20422;-59
2022/05/08 02:52:42;;;;;;;16.58;3.00;;;;;;;29.60;12.14;100443.16;4958165;28;20027;-59
2022/05/08 03:00:44;;;;;;;11.98;2.30;;;;;;;29.15;12.58;100448.31;4957797;28;20087;-59
2022/05/08 03:03:13;;;;;;;22.30;2.75;;;;;;;29.36;12.57;100455.13;4941045;29;20449;-58
2022/05/08 03:05:47;;;;;;;14.65;2.38;;;;;;;29.30;12.83;100445.56;4958172;28;20035;-59
2022/05/08 03:08:15;;;;;;;13.13;2.53;;;;;;;29.31;12.79;100455.53;4957917;29;20042;-59
2022/05/08 03:13:27;;;;;;;15.25;2.38;;;;;;;29.41;12.64;100463.13;4957989;29;20051;-59
2022/05/08 03:15:54;;;;;;;11.30;2.47;;;;;;;29.34;13.15;100463.94;4940789;29;20133;-59
2022/05/08 03:18:22;;;;;;;16.13;2.50;;;;;;;29.28;12.82;100464.75;4957624;28;20032;-60
2022/05/08 03:20:49;;;;;;;25.90;2.72;;;;;;;29.14;13.06;100457.94;4957808;28;20027;-60
2022/05/08 03:23:16;;;;;;;27.42;3.70;;;;;;;29.29;12.72;100458.75;4957590;28;20046;-58
2022/05/08 03:25:43;;;;;;;38.40;3.50;;;;;;;29.12;13.05;100465.13;4957702;28;20122;-59
2022/05/08 03:28:10;;;;;;;32.13;3.60;;;;;;;29.06;12.80;100458.28;4957580;29;20461;-59
2022/05/08 03:30:37;;;;;;;31.00;3.97;;;;;;;28.90;12.93;100475.44;4939941;29;20085;-60
2022/05/08 03:33:04;;;;;;;43.17;4.72;;;;;;;29.11;13.17;100467.13;4957377;28;20043;-59
2022/05/08 03:35:31;;;;;;;43.05;4.10;;;;;;;28.88;12.72;100456.25;4946261;29;20568;-58
2022/05/08 03:37:57;;;;;;;30.52;3.67;;;;;;;29.08;11.98;100467.09;4946089;29;20386;-59
2022/05/08 03:40:29;;;;;;;34.80;3.92;;;;;;;29.01;11.98;100469.88;4950353;29;20031;-59
2022/05/08 03:42:55;;;;;;;26.95;2.90;;;;;;;29.07;12.21;100463.50;4946284;29;20035;-58
2022/05/08 03:45:22;;;;;;;33.72;3.50;;;;;;;29.00;11.81;100460.69;4948031;29;20086;-59
2022/05/08 03:47:52;;;;;;;38.45;3.42;;;;;;;29.02;11.33;100460.28;4926005;29;20510;-58
2022/05/08 03:50:20;;;;;;;16.60;2.60;;;;;;;28.94;11.31;100473.47;4948591;29;20047;-59
2022/05/08 03:52:47;;;;;;;27.23;3.25;;;;;;;28.94;10.89;100473.47;4945604;29;20031;-59
2022/05/08 03:55:15;;;;;;;35.67;3.30;;;;;;;28.95;10.98;100466.69;4950210;29;20032;-58
2022/05/08 03:57:43;;;;;;;36.08;3.47;;;;;;;28.85;10.90;100457.03;4946752;28;20082;-60
2022/05/08 04:00:11;;;;;;;28.08;3.40;;;;;;;28.90;10.08;100464.25;4947453;28;20075;-59
2022/05/08 04:02:41;;;;;;;26.10;2.80;;;;;;;28.90;9.90;100472.63;4950872;29;20051;-59
2022/05/08 04:05:09;;;;;;;21.95;2.90;;;;;;;28.95;9.52;100480.66;4945771;28;20062;-60
2022/05/08 04:07:37;;;;;;;13.73;2.30;;;;;;;29.08;9.12;100489.47;4946527;29;20090;-60
2022/05/08 04:10:05;;;;;;;8.63;2.00;;;;;;;29.14;9.37;100479.50;4947062;29;20040;-58
2022/05/08 04:12:31;;;;;;;13.45;2.10;;;;;;;29.09;8.88;100497.50;4951489;28;20039;-58
2022/05/08 04:14:59;;;;;;;12.52;2.63;;;;;;;29.24;9.25;100495.50;4950163;28;20058;-59
2022/05/08 04:17:30;;;;;;;23.95;3.20;;;;;;;29.14;9.39;100494.31;4945302;29;20046;-59
2022/05/08 04:19:57;;;;;;;26.58;2.83;;;;;;;28.96;9.24;100498.25;4948665;29;20036;-59
2022/05/08 04:25:10;;;;;;;;;;;;;;;28.71;9.10;100517.69;4947304;29;20425;-60
2022/05/08 04:27:37;;;;;;;15.88;3.63;;;;;;;28.67;8.85;100511.31;4951838;29;19918;-59
2022/05/08 04:30:05;;;;;;;21.30;3.83;;;;;;;28.58;9.02;100506.88;4950616;29;20031;-59
2022/05/08 04:32:32;;;;;;;14.98;3.30;;;;;;;28.72;8.33;100517.31;4933673;29;20035;-60
2022/05/08 04:34:59;;;;;;;9.63;3.08;;;;;;;28.56;8.61;100519.66;4948804;29;20035;-60
2022/05/08 04:37:25;;;;;;;10.85;2.30;;;;;;;28.57;8.83;100524.84;4945167;29;20445;-60
2022/05/08 04:39:52;;;;;;;10.68;2.50;;;;;;;28.26;8.87;100534.66;4949511;29;20130;-59
2022/05/08 04:42:19;;;;;;;14.30;2.92;;;;;;;27.99;9.37;100536.00;4944334;29;20789;-59
2022/05/08 04:44:45;;;;;;;15.60;2.95;;;;;;;27.69;10.08;100541.78;4949837;29;20032;-59
2022/05/08 04:47:12;;;;;;;13.20;3.40;;;;;;;27.53;10.31;100547.56;4945713;29;20110;-59
2022/05/08 04:49:39;;;;;;;7.78;2.60;;;;;;;27.41;10.66;100550.63;4932418;29;20027;-59
2022/05/08 04:52:06;;;;;;;8.98;2.53;;;;;;;27.17;10.78;100545.59;4941473;29;20024;-59
2022/05/08 04:54:33;;;;;;;10.13;2.60;;;;;;;27.12;10.72;100557.09;4950565;29;20039;-60
2022/05/08 04:57:01;;;;;;;9.65;2.13;;;;;;;27.18;10.87;100553.59;4953386;28;20032;-59
2022/05/08 04:59:27;;;;;;;8.13;2.00;;;;;;;27.05;11.14;100549.44;4949534;29;20019;-59
2022/05/08 05:01:55;;;;;;;8.30;2.13;;;;;;;26.77;11.29;100556.25;4943537;29;20110;-58
2022/05/08 05:04:22;;;;;;;7.30;2.15;;;;;;;26.87;11.16;100548.41;4931103;29;20027;-57
2022/05/08 05:06:49;;;;;;;9.48;2.53;;;;;;;26.83;10.76;100553.94;4946092;29;20039;-59
2022/05/08 05:09:16;;;;;;;8.45;2.05;;;;;;;26.97;10.48;100544.94;4935194;29;20062;-59
2022/05/08 05:11:42;;;;;;;15.10;2.47;;;;;;;26.88;10.48;100561.16;4946011;28;20533;-58
2022/05/08 05:14:09;;;;;;;11.43;2.30;;;;;;;26.89;10.34;100535.66;4946007;28;20051;-58
2022/05/08 05:16:36;;;;;;;6.43;2.17;;;;;;;26.87;10.67;100556.75;4944118;29;20028;-59
2022/05/08 05:19:04;;;;;;;9.07;2.25;;;;;;;26.71;10.82;100556.94;4929231;29;20110;-58
2022/05/08 05:21:31;;;;;;;5.85;2.10;;;;;;;26.64;11.11;100557.66;4941739;29;20027;-58
2022/05/08 05:23:58;;;;;;;11.85;2.33;;;;;;;26.50;11.48;100552.69;4942962;29;20113;-57
2022/05/08 05:26:25;;;;;;;10.18;2.63;;;;;;;26.23;11.91;100547.50;4933033;29;20020;-58
2022/05/08 05:28:52;;;;;;;16.05;3.20;;;;;;;25.95;12.54;100536.69;4942301;29;20046;-59
2022/05/08 05:31:20;;;;;;;13.80;2.53;;;;;;;25.89;12.89;100539.00;4942138;29;20030;-57
2022/05/08 05:33:47;;;;;;;15.07;3.83;;;;;;;25.84;12.74;100540.09;4943856;28;20039;-58
2022/05/08 05:36:14;;;;;;;11.55;3.13;;;;;;;25.68;13.16;100539.47;4947042;28;20034;-60
2022/05/08 05:38:40;;;;;;;13.52;2.83;;;;;;;25.57;13.43;100544.78;4944469;29;20028;-60
2022/05/08 05:41:07;;;;;;;15.25;3.60;;;;;;;25.46;13.80;100554.13;4931403;29;20032;-57
2022/05/08 05:43:34;;;;;;;21.77;4.78;;;;;;;25.46;13.60;100551.34;4941167;29;20955;-57
2022/05/08 05:48:46;;;;;;;16.05;4.43;;;;;;;25.99;13.07;100541.16;4929295;29;20035;-57
2022/05/08 05:51:12;;;;;;;28.98;4.07;;;;;;;26.03;13.63;100549.56;4942238;29;20393;-57
2022/05/08 05:53:39;;;;;;;27.58;4.47;;;;;;;25.99;14.38;100554.28;4939688;28;20284;-60
2022/05/08 05:56:06;;;;;;;29.48;4.57;;;;;;;25.59;14.60;100559.13;4938717;29;20039;-59
2022/05/08 05:58:33;;;;;;;31.80;5.18;;;;;;;25.46;14.52;100535.44;4942059;29;20485;-58
2022/05/08 06:01:00;;;;;;;30.30;4.70;;;;;;;25.11;14.50;100548.69;4944883;29;20573;-59
2022/05/08 06:03:26;;;;;;;33.35;5.00;;;;;;;24.81;14.30;100551.25;4945396;29;20044;-59
2022/05/08 06:05:53;;;;;;;31.63;4.60;;;;;;;24.68;14.31;100547.78;4942054;29;20493;-59
2022/05/08 06:08:20;;;;;;;22.60;3.85;;;;;;;24.69;13.87;100549.38;4944487;29;20023;-59
2022/05/08 06:10:47;;;;;;;17.92;3.95;;;;;;;24.50;14.08;100541.84;4944206;29;20102;-58
2022/05/08 06:13:13;;;;;;;26.85;3.70;;;;;;;24.81;12.98;100543.69;4947654;28;20078;-59
2022/05/08 06:15:40;;;;;;;17.73;4.03;;;;;;;24.84;13.09;100547.72;4953418;29;20054;-58
2022/05/08 06:18:07;;;;;;;37.75;4.53;;;;;;;24.39;13.43;100549.13;4953002;28;20035;-57
2022/05/08 06:20:34;;;;;;;46.22;4.15;;;;;;;24.29;12.68;100553.28;4953793;29;20049;-58
2022/05/08 06:23:01;;;;;;;17.20;3.50;;;;;;;24.22;13.14;100557.81;4953606;29;20456;-57
2022/05/08 06:25:30;;;;;;;20.10;3.03;;;;;;;24.09;12.44;100554.34;4953528;29;20038;-58
2022/05/08 06:27:57;;;;;;;24.00;3.97;;;;;;;25.03;12.06;100553.31;4936466;29;20038;-59
2022/05/08 06:30:24;;;;;;;17.80;3.63;;;;;;;25.09;11.72;100556.59;4953491;28;20027;-58
2022/05/08 06:32:50;;;;;;;18.48;3.13;;;;;;;25.22;9.90;100550.50;4953238;29;20063;-58
2022/05/08 06:35:17;;;;;;;11.48;2.92;;;;;;;25.46;9.39;100554.91;4936157;29;20122;-60
2022/05/08 06:37:44;;;;;;;24.95;3.40;;;;;;;25.38;9.95;100549.59;4953503;28;20073;-58
2022/05/08 06:40:11;;;;;;;19.13;2.92;;;;;;;25.02;10.14;100545.34;4953273;28;20031;-58
2022/05/08 06:42:38;;;;;;;14.77;2.50;;;;;;;25.04;8.98;100537.44;4953576;28;20047;-57
2022/05/08 06:45:06;;;;;;;20.10;2.80;;;;;;;24.67;9.95;100529.50;4953577;28;20042;-58
2022/05/08 06:47:32;;;;;;;14.35;3.10;;;;;;;24.35;10.21;100529.59;4952232;29;20493;-58
2022/05/08 06:49:59;;;;;;;26.27;4.60;;;;;;;24.17;10.58;100517.25;4954315;29;20448;-59
2022/05/08 06:52:26;;;;;;;11.93;2.75;;;;;;;24.53;9.72;100530.00;4952963;28;20029;-58
2022/05/08 06:54:53;;;;;;;14.88;2.97;;;;;;;24.88;9.14;100513.25;4952717;28;20043;-60
2022/05/08 06:57:19;;;;;;;14.77;2.67;;;;;;;25.16;8.63;100528.94;4953184;29;20078;-56
2022/05/08 07:02:31;;;;;;;11.95;2.08;;;;;;;25.43;6.74;100516.72;4954102;29;20035;-58
2022/05/08 07:04:59;;;;;;;7.93;2.03;;;;;;;25.23;6.14;100523.50;4955033;28;20015;-58
2022/05/08 07:07:25;;;;;;;13.25;2.80;;;;;;;25.59;6.24;100517.41;4925010;29;20047;-59
2022/05/08 07:09:52;;;;;;;10.68;2.00;;;;;;;25.55;6.00;100508.19;4958118;28;20051;-58
2022/05/08 07:12:19;;;;;;;6.88;1.90;;;;;;;25.64;6.14;100509.91;4957730;29;20038;-59
2022/05/08 07:14:46;;;;;;;17.27;2.60;;;;;;;25.82;5.87;100511.03;4940433;29;20043;-58
2022/05/08 07:17:18;;;;;;;7.88;2.00;;;;;;;25.79;5.43;100511.78;4957982;29;20040;-57
2022/05/08 07:19:45;;;;;;;15.85;2.30;;;;;;;25.84;6.08;100505.91;4940856;29;20039;-59
2022/05/08 07:22:12;;;;;;;15.30;2.85;;;;;;;25.45;6.42;100499.66;4940295;29;20524;-58
2022/05/08 07:24:41;;;;;;;13.00;2.58;;;;;;;25.32;6.56;100499.03;4934913;29;20506;-59
2022/05/08 07:27:11;;;;;;;18.75;2.72;;;;;;;25.06;6.67;100490.59;4947963;29;20032;-57
2022/05/08 07:29:41;;;;;;;13.30;2.88;;;;;;;25.21;5.99;100481.34;4944202;29;20380;-57
2022/05/08 07:32:08;;;;;;;15.45;2.53;;;;;;;25.45;5.37;100492.09;4935288;29;20058;-58
2022/05/08 07:37:20;;;;;;;18.27;2.45;;;;;;;25.80;5.14;100486.34;4953475;29;20122;-58
2022/05/08 07:39:47;;;;;;;23.10;3.25;;;;;;;25.83;5.22;100479.22;4934538;29;20027;-58
2022/05/08 07:42:14;;;;;;;14.90;2.63;;;;;;;25.52;6.25;100480.31;4956502;29;20440;-58
2022/05/08 07:44:40;;;;;;;12.68;2.40;;;;;;;25.91;5.46;100472.59;4956451;28;20065;-59
2022/05/08 07:47:08;;;;;;;16.13;2.10;;;;;;;26.09;4.87;100470.88;4954453;29;20481;-59
2022/05/08 07:49:35;;;;;;;24.27;3.28;;;;;;;26.31;4.42;100460.03;4956409;29;20041;-59
2022/05/08 07:52:02;;;;;;;27.55;3.67;;;;;;;26.44;4.50;100472.59;4956650;29;20086;-59
2022/05/08 07:54:28;;;;;;;17.77;2.40;;;;;;;26.58;4.75;100464.41;4953923;29;20039;-59
2022/05/08 07:56:55;;;;;;;27.48;2.80;;;;;;;26.46;5.00;100445.16;4956054;29;20031;-59
2022/05/08 07:59:22;;;;;;;24.70;3.35;;;;;;;26.53;5.11;100439.66;4956299;28;20102;-59
2022/05/08 08:01:48;;;;;;;42.72;4.43;;;;;;;26.49;5.52;100444.38;4953672;29;20440;-58
2022/05/08 08:04:15;;;;;;;44.72;4.95;;;;;;;26.43;5.61;100423.63;4955951;29;20039;-59
2022/05/08 08:06:42;;;;;;;44.58;4.97;;;;;;;26.26;5.91;100438.09;4953036;28;20043;-57
2022/05/08 08:09:10;;;;;;;37.90;4.13;;;;;;;26.16;5.47;100412.47;4953372;29;20023;-58
2022/05/08 08:11:41;;;;;;;40.25;4.95;;;;;;;26.09;5.77;100423.53;4938034;29;20478;-57
2022/05/08 08:14:09;;;;;;;52.58;5.72;;;;;;;26.04;5.77;100401.59;4922052;29;20063;-58
2022/05/08 08:16:36;;;;;;;48.38;4.97;;;;;;;26.06;5.87;100409.56;4954111;28;20047;-57
2022/05/08 08:19:03;;;;;;;48.17;4.80;;;;;;;26.07;6.00;100411.19;4955417;28;20031;-59
2022/05/08 08:21:31;;;;;;;40.25;4.13;;;;;;;26.08;5.63;100415.56;4954950;28;20090;-58
2022/05/08 08:24:00;;;;;;;29.95;4.63;;;;;;;25.98;5.85;100419.00;4939201;29;20046;-58
2022/05/08 08:26:29;;;;;;;21.55;3.47;;;;;;;25.83;5.95;100432.69;4953423;29;20023;-58
2022/05/08 08:28:58;;;;;;;22.83;3.42;;;;;;;25.83;6.06;100407.66;4939222;29;20027;-59
2022/05/08 08:31:25;;;;;;;13.93;2.78;;;;;;;25.87;5.74;100405.75;4955610;28;20011;-59
2022/05/08 08:33:52;;;;;;;36.38;4.43;;;;;;;25.73;6.06;100408.31;4955712;29;20035;-58
2022/05/08 08:36:19;;;;;;;29.73;3.67;;;;;;;25.86;6.01;100406.13;4955351;28;20050;-58
2022/05/08 08:38:49;;;;;;;25.83;3.92;;;;;;;25.71;5.95;100399.53;4953153;29;20134;-58
2022/05/08 08:41:21;;;;;;;29.05;4.30;;;;;;;25.81;5.39;100381.38;4955124;29;20062;-58
2022/05/08 08:49:23;;;;;;;43.58;4.80;;;;;;;26.06;4.95;100360.25;4954765;29;20054;-58
2022/05/08 08:51:51;;;;;;;35.08;4.10;;;;;;;26.32;5.14;100355.75;4953178;29;20031;-58
2022/05/08 08:54:22;;;;;;;38.83;4.28;;;;;;;26.43;4.87;100343.59;4955487;29;20086;-59
2022/05/08 08:56:51;;;;;;;40.42;4.75;;;;;;;26.45;4.67;100332.06;4953248;29;20049;-58
2022/05/08 08:59:21;;;;;;;27.48;3.40;;;;;;;26.50;4.66;100351.22;4955294;28;20026;-58
2022/05/08 09:01:48;;;;;;;25.92;3.95;;;;;;;26.65;4.66;100341.84;4936422;29;20043;-58
2022/05/08 09:04:18;;;;;;;37.50;3.92;;;;;;;26.46;4.75;100328.09;4936668;29;20036;-58
2022/05/08 09:06:46;;;;;;;31.17;3.53;;;;;;;26.38;5.03;100334.75;4942648;28;20126;-58
2022/05/08 09:09:31;;;;;;;26.27;4.70;;;;;;;26.44;4.97;100327.69;4955689;29;20074;-58
2022/05/08 09:12:02;;;;;;;27.92;4.07;;;;;;;26.48;4.96;100328.50;4955461;29;20165;-58
2022/05/08 09:14:31;;;;;;;33.95;4.60;;;;;;;26.39;4.74;100323.25;4955410;28;20046;-58
2022/05/08 09:16:59;;;;;;;37.25;4.75;;;;;;;26.44;5.11;100322.09;4955385;29;20027;-57
2022/05/08 09:19:30;;;;;;;33.15;4.75;;;;;;;26.39;4.97;100353.91;4955629;29;20042;-58
2022/05/08 09:22:00;;;;;;;26.60;4.47;;;;;;;26.26;5.14;100346.97;4955644;28;20051;-58
2022/05/08 09:24:28;;;;;;;35.35;4.20;;;;;;;26.17;4.96;100344.44;4955421;29;20031;-58
2022/05/08 09:27:18;;;;;;;35.95;4.28;;;;;;;26.02;5.35;100353.81;4955303;28;20034;-58
2022/05/08 09:29:47;;;;;;;28.85;4.13;;;;;;;25.88;5.14;100348.06;4945930;28;20051;-58
2022/05/08 09:32:39;;;;;;;35.25;3.97;;;;;;;25.77;5.21;100369.38;4955231;29;20167;-57
2022/05/08 09:35:10;;;;;;;35.73;4.10;;;;;;;25.77;5.66;100366.59;4948119;28;20134;-57
2022/05/08 09:37:54;;;;;;;44.72;5.45;;;;;;;25.86;5.56;100375.50;4937432;29;20102;-59
2022/05/08 09:40:23;;;;;;;44.28;6.43;;;;;;;25.77;5.96;100381.31;4954936;28;20043;-57
2022/05/08 09:42:50;;;;;;;43.00;6.30;;;;;;;25.59;5.69;100385.78;4937513;29;20039;-57
2022/05/08 09:45:19;;;;;;;40.85;5.13;;;;;;;25.78;5.43;100388.50;4955099;28;20054;-57
2022/05/08 09:47:47;;;;;;;44.63;5.28;;;;;;;25.86;5.61;100394.97;4954832;29;20385;-58
2022/05/08 09:50:18;;;;;;;44.25;5.53;;;;;;;25.80;5.27;100396.47;4954973;29;20034;-58
2022/05/08 09:52:48;;;;;;;36.40;5.43;;;;;;;25.81;5.30;100393.31;4937509;29;20119;-57
2022/05/08 09:55:20;;;;;;;73.93;8.07;;;;;;;25.86;5.29;100397.75;4954888;29;20186;-56
2022/05/08 09:57:50;;;;;;;85.03;8.32;;;;;;;25.75;5.25;100399.59;4954942;29;20035;-57
2022/05/08 10:00:17;;;;;;;80.45;8.80;;;;;;;25.77;5.77;100397.22;4953767;28;20050;-57
2022/05/08 10:02:49;;;;;;;62.25;8.25;;;;;;;25.89;5.48;100399.78;4937644;29;20389;-57
2022/05/08 10:05:17;;;;;;;88.50;7.75;;;;;;;25.85;5.37;100399.75;4954673;29;20043;-58
2022/05/08 10:07:44;;;;;;;78.55;7.47;;;;;;;25.82;5.66;100394.91;4954510;28;20031;-58
2022/05/08 10:15:48;;;;;;;66.38;8.30;;;;;;;25.69;5.70;100389.97;4954823;29;20394;-58
2022/05/08 10:18:35;;;;;;;53.75;6.60;;;;;;;25.54;6.25;100406.41;4954436;29;20118;-58
2022/05/08 10:21:07;;;;;;;82.65;8.63;;;;;;;25.40;6.31;100389.47;4954395;29;20059;-58
2022/05/08 10:23:42;;;;;;;67.72;7.70;;;;;;;25.56;5.44;100403.25;4954256;29;20039;-58
2022/05/08 10:26:29;;;;;;;61.38;7.47;;;;;;;25.75;5.75;100400.38;4954518;29;20367;-57
2022/05/08 10:29:03;;;;;;;69.07;7.35;;;;;;;25.63;5.70;100396.97;4938316;29;20071;-57
2022/05/08 10:31:47;;;;;;;45.03;6.07;;;;;;;25.69;5.76;100404.69;4953792;29;20051;-58
2022/05/08 10:34:15;;;;;;;52.83;7.35;;;;;;;25.75;5.49;100402.38;4954600;29;20046;-58
2022/05/08 10:37:13;;;;;;;48.20;6.38;;;;;;;25.65;6.01;100391.81;4954261;28;20027;-57
2022/05/08 10:39:43;;;;;;;60.05;8.07;;;;;;;25.55;6.15;100394.09;4954893;28;20039;-58
2022/05/08 10:42:27;;;;;;;71.97;8.18;;;;;;;25.66;5.87;100401.78;4958354;29;20035;-57
2022/05/08 10:44:56;;;;;;;77.30;8.43;;;;;;;25.77;5.59;100416.72;4958392;29;20035;-58
2022/05/08 10:47:40;;;;;;;56.90;6.22;;;;;;;25.81;5.65;100386.94;4940748;29;20122;-62
2022/05/08 10:50:12;;;;;;;76.70;8.07;;;;;;;25.92;5.62;100387.09;4958181;29;20053;-58
2022/05/08 10:52:44;;;;;;;126.60;11.48;;;;;;;26.00;5.71;100389.59;4958180;29;20389;-57
2022/05/08 10:55:16;;;;;;;82.65;8.50;;;;;;;25.97;5.39;100382.00;4958087;29;20133;-58
2022/05/08 10:57:50;;;;;;;58.33;6.60;;;;;;;26.11;5.61;100379.41;4958156;29;20516;-58
2022/05/08 11:00:30;;;;;;;80.07;8.13;;;;;;;26.10;5.51;100368.63;4957858;29;20075;-58
2022/05/08 11:03:01;;;;;;;90.25;10.05;;;;;;;26.38;5.30;100376.56;4957598;29;20093;-58
2022/05/08 11:05:34;;;;;;;81.05;9.20;;;;;;;26.48;5.25;100361.97;4958212;29;20171;-58
2022/05/08 11:08:04;;;;;;;63.15;8.23;;;;;;;26.45;5.56;100390.59;4957657;28;20040;-62
2022/05/08 11:10:37;;;;;;;35.03;4.68;;;;;;;26.56;5.13;100368.41;4957917;29;20066;-62
2022/05/08 11:13:10;;;;;;;49.30;6.28;;;;;;;26.50;5.70;100370.75;4957430;28;20489;-61
2022/05/08 11:15:39;;;;;;;74.85;7.28;;;;;;;26.33;5.47;100362.94;4958185;29;20039;-61
2022/05/08 11:18:11;;;;;;;40.30;5.45;;;;;;;26.32;5.45;100361.34;4957972;28;20033;-62
2022/05/08 11:20:43;;;;;;;57.65;6.80;;;;;;;26.40;5.53;100379.78;4957685;29;20051;-61
2022/05/08 11:23:14;;;;;;;60.95;7.22;;;;;;;26.33;5.64;100341.47;4940472;29;20035;-61
2022/05/08 11:25:52;;;;;;;63.78;7.53;;;;;;;26.34;5.96;100331.91;4956681;29;20054;-61
2022/05/08 11:28:22;;;;;;;58.90;8.30;;;;;;;26.63;5.80;100349.78;4957538;29;20115;-59
2022/05/08 11:30:51;;;;;;;44.42;6.97;;;;;;;26.41;6.26;100347.97;4940666;29;20126;-58
2022/05/08 11:36:10;;;;;;;49.85;5.97;;;;;;;26.32;6.77;100370.50;4957198;28;20114;-57
2022/05/08 11:38:52;;;;;;;91.25;8.80;;;;;;;26.24;6.94;100340.16;4940267;29;20031;-58
2022/05/08 11:41:46;;;;;;;64.07;8.20;;;;;;;26.31;6.93;100360.53;4957294;29;20481;-59
2022/05/08 11:44:18;;;;;;;46.22;6.68;;;;;;;26.55;6.70;100362.03;4957370;29;20032;-59
2022/05/08 11:46:50;;;;;;;46.95;6.82;;;;;;;26.42;6.92;100341.19;4957192;29;20047;-58
2022/05/08 11:49:25;;;;;;;71.25;6.75;;;;;;;26.63;6.87;100335.03;4957196;29;20050;-58
2022/05/08 11:52:01;;;;;;;94.82;8.90;;;;;;;26.41;7.37;100337.63;4957188;28;20039;-58
2022/05/08 11:54:38;;;;;;;37.80;5.53;;;;;;;26.16;7.55;100351.19;4957025;29;20035;-59
2022/05/08 11:57:27;;;;;;;43.17;5.13;;;;;;;26.16;8.07;100369.91;4940189;29;20051;-58
2022/05/08 12:00:06;;;;;;;47.30;6.10;;;;;;;26.29;7.91;100384.41;4956775;29;20074;-59
2022/05/08 12:02:41;;;;;;;47.97;5.68;;;;;;;26.32;8.11;100358.56;4956870;29;20031;-58
2022/05/08 12:05:24;;;;;;;46.03;5.35;;;;;;;26.11;7.93;100384.97;4956768;29;20031;-58
2022/05/08 12:07:52;;;;;;;24.70;4.28;;;;;;;26.14;8.34;100355.56;4956751;28;20035;-58